createdAt,value
2022-09-22T00:01:14.857Z,36.43
2022-09-22T00:03:43.619Z,36.22
2022-09-22T00:06:13.231Z,36.28
2022-09-22T00:08:41.925Z,36.29
2022-09-22T00:11:13.888Z,36.51
2022-09-22T00:13:42.336Z,36.56
2022-09-22T00:16:11.101Z,36.06
2022-09-22T00:18:39.092Z,36.11
2022-09-22T00:21:09.246Z,36.55
2022-09-22T00:23:38.427Z,36.16
2022-09-22T00:26:07.968Z,36.32
2022-09-22T00:28:38.066Z,36.33
2022-09-22T00:31:07.117Z,36.30
2022-09-22T00:33:34.977Z,36.26
2022-09-22T00:36:03.703Z,36.47
2022-09-22T00:38:31.597Z,36.04
2022-09-22T00:41:00.236Z,36.11
2022-09-22T00:43:30.119Z,36.04
2022-09-22T00:46:01.226Z,36.24
2022-09-22T00:48:29.788Z,36.09
2022-09-22T00:50:57.728Z,36.16
2022-09-22T00:53:26.555Z,36.29
2022-09-22T00:55:56.818Z,36.12
2022-09-22T00:58:27.946Z,36.06
2022-09-22T01:00:55.846Z,36.17
2022-09-22T01:03:29.867Z,36.10
2022-09-22T01:06:01.527Z,36.47
2022-09-22T01:08:29.715Z,36.45
2022-09-22T01:10:57.556Z,35.92
2022-09-22T01:13:28.205Z,36.09
2022-09-22T01:16:06.733Z,35.94
2022-09-22T01:18:43.077Z,36.27
2022-09-22T01:21:33.637Z,36.35
2022-09-22T01:27:40.210Z,36.19
2022-09-22T01:30:27.523Z,36.09
2022-09-22T01:33:04.052Z,36.16
2022-09-22T01:35:33.603Z,36.04
2022-09-22T01:38:05.853Z,36.10
2022-09-22T01:40:35.510Z,36.36
2022-09-22T01:43:08.859Z,35.81
2022-09-22T01:45:38.052Z,36.12
2022-09-22T01:48:11.128Z,36.32
2022-09-22T01:50:40.997Z,35.90
2022-09-22T01:53:11.546Z,36.03
2022-09-22T01:55:40.403Z,36.04
2022-09-22T01:58:09.719Z,36.30
2022-09-22T02:00:40.205Z,35.89
2022-09-22T02:03:09.450Z,36.22
2022-09-22T02:05:38.298Z,36.13
2022-09-22T02:08:09.961Z,36.02
2022-09-22T02:10:39.735Z,36.28
2022-09-22T02:13:07.870Z,36.05
2022-09-22T02:15:52.827Z,35.82
2022-09-22T02:18:24.048Z,36.03
2022-09-22T02:20:52.001Z,36.05
2022-09-22T02:23:20.161Z,36.19
2022-09-22T02:25:48.043Z,36.07
2022-09-22T02:28:16.962Z,36.08
2022-09-22T02:30:54.410Z,35.96
2022-09-22T02:33:38.110Z,35.98
2022-09-22T02:36:13.443Z,35.79
2022-09-22T02:38:43.875Z,36.01
2022-09-22T02:41:12.825Z,35.57
2022-09-22T02:43:42.916Z,35.58
2022-09-22T02:46:15.200Z,36.08
2022-09-22T02:48:46.433Z,35.73
2022-09-22T02:51:14.840Z,35.97
2022-09-22T02:53:42.963Z,36.11
2022-09-22T02:56:10.864Z,35.89
2022-09-22T02:58:38.706Z,35.85
2022-09-22T03:01:06.831Z,35.75
2022-09-22T03:03:35.060Z,35.93
2022-09-22T03:06:04.323Z,35.91
2022-09-22T03:08:32.210Z,35.59
2022-09-22T03:11:00.107Z,35.98
2022-09-22T03:13:28.247Z,35.56
2022-09-22T03:15:56.182Z,35.69
2022-09-22T03:18:24.081Z,35.61
2022-09-22T03:20:51.940Z,35.74
2022-09-22T03:23:21.448Z,35.89
2022-09-22T03:25:49.424Z,35.66
2022-09-22T03:28:17.333Z,35.68
2022-09-22T03:30:45.295Z,35.85
2022-09-22T03:33:13.449Z,35.56
2022-09-22T03:35:41.269Z,35.76
2022-09-22T03:38:09.129Z,35.83
2022-09-22T03:40:38.391Z,35.60
2022-09-22T03:43:06.655Z,35.93
2022-09-22T03:45:34.485Z,35.98
2022-09-22T03:48:02.756Z,35.54
2022-09-22T03:50:30.623Z,35.90
2022-09-22T03:52:58.778Z,35.65
2022-09-22T03:55:26.758Z,35.59
2022-09-22T03:57:56.008Z,35.60
2022-09-22T04:00:24.102Z,35.87
2022-09-22T04:02:52.504Z,35.92
2022-09-22T04:05:20.422Z,35.88
2022-09-22T04:07:48.420Z,36.09
2022-09-22T04:10:16.349Z,35.92
2022-09-22T04:12:44.484Z,35.86
2022-09-22T04:15:13.820Z,35.99
2022-09-22T04:17:41.654Z,35.93
2022-09-22T04:20:11.365Z,36.28
2022-09-22T04:22:39.497Z,36.07
2022-09-22T04:25:08.846Z,36.21
2022-09-22T04:27:37.082Z,35.83
2022-09-22T04:30:07.093Z,35.87
2022-09-22T04:32:36.448Z,36.18
2022-09-22T04:35:04.343Z,36.12
2022-09-22T04:37:32.202Z,35.91
2022-09-22T04:40:00.308Z,36.04
2022-09-22T04:42:28.121Z,35.93
2022-09-22T04:44:57.180Z,35.83
2022-09-22T04:47:25.070Z,36.20
2022-09-22T04:49:54.655Z,36.14
2022-09-22T04:52:22.548Z,35.94
2022-09-22T04:54:50.733Z,35.97
2022-09-22T04:57:20.525Z,35.70
2022-09-22T04:59:48.583Z,35.86
2022-09-22T05:02:16.460Z,35.73
2022-09-22T05:04:44.595Z,35.83
2022-09-22T05:07:14.003Z,36.17
2022-09-22T05:09:41.906Z,36.01
2022-09-22T05:12:09.786Z,35.82
2022-09-22T05:14:37.952Z,35.75
2022-09-22T05:17:06.242Z,36.06
2022-09-22T05:19:34.148Z,36.30
2022-09-22T05:22:01.962Z,36.30
2022-09-22T05:24:31.969Z,36.34
2022-09-22T05:26:59.983Z,35.99
2022-09-22T05:29:29.214Z,36.21
2022-09-22T05:31:57.244Z,35.70
2022-09-22T05:34:25.807Z,36.30
2022-09-22T05:36:55.139Z,36.41
2022-09-22T05:39:24.427Z,36.11
2022-09-22T05:41:53.737Z,35.87
2022-09-22T05:44:23.596Z,36.13
2022-09-22T05:46:51.466Z,36.06
2022-09-22T05:49:19.271Z,36.16
2022-09-22T05:51:47.130Z,35.90
2022-09-22T05:54:16.001Z,36.10
2022-09-22T05:56:45.925Z,35.81
2022-09-22T05:59:15.196Z,35.93
2022-09-22T06:01:43.218Z,35.92
2022-09-22T06:04:11.334Z,36.03
2022-09-22T06:06:39.234Z,35.98
2022-09-22T06:09:07.136Z,36.00
2022-09-22T06:11:35.029Z,35.94
2022-09-22T06:14:03.334Z,36.11
2022-09-22T06:16:33.097Z,36.10
2022-09-22T06:19:00.984Z,35.91
2022-09-22T06:21:28.862Z,35.94
2022-09-22T06:23:57.537Z,36.45
2022-09-22T06:26:25.549Z,36.01
2022-09-22T06:28:53.578Z,35.80
2022-09-22T06:31:21.448Z,36.16
2022-09-22T06:33:51.147Z,35.99
2022-09-22T06:36:24.006Z,36.00
2022-09-22T06:38:52.915Z,35.96
2022-09-22T06:41:20.832Z,35.93
2022-09-22T06:43:50.213Z,36.13
2022-09-22T06:46:19.501Z,36.17
2022-09-22T06:48:51.785Z,35.84
2022-09-22T06:51:19.656Z,36.25
2022-09-22T06:53:51.864Z,35.93
2022-09-22T06:56:20.680Z,36.08
2022-09-22T06:59:08.970Z,36.18
2022-09-22T07:01:37.484Z,36.41
2022-09-22T07:04:06.904Z,36.18
2022-09-22T07:06:35.834Z,36.17
2022-09-22T07:09:03.903Z,36.00
2022-09-22T07:11:34.230Z,36.21
2022-09-22T07:14:04.472Z,36.36
2022-09-22T07:16:32.426Z,36.13
2022-09-22T07:19:00.374Z,36.24
2022-09-22T07:21:32.953Z,36.04
2022-09-22T07:24:01.115Z,36.39
2022-09-22T07:26:32.499Z,36.05
2022-09-22T07:29:00.875Z,36.31
2022-09-22T07:31:29.656Z,36.11
2022-09-22T07:34:00.227Z,36.34
2022-09-22T07:36:30.499Z,36.15
2022-09-22T07:38:58.997Z,36.24
2022-09-22T07:41:28.469Z,36.29
2022-09-22T07:43:57.669Z,36.29
2022-09-22T07:46:25.585Z,36.14
2022-09-22T07:48:53.501Z,36.30
2022-09-22T07:51:22.107Z,36.58
2022-09-22T07:53:53.671Z,36.35
2022-09-22T07:56:23.639Z,36.07
2022-09-22T07:58:52.136Z,36.17
2022-09-22T08:01:21.542Z,36.47
2022-09-22T08:03:50.522Z,36.06
2022-09-22T08:06:20.043Z,36.38
2022-09-22T08:08:52.452Z,36.47
2022-09-22T08:11:22.669Z,36.60
2022-09-22T08:13:52.616Z,36.08
2022-09-22T08:16:22.516Z,36.36
2022-09-22T08:18:56.564Z,36.47
2022-09-22T08:21:24.476Z,36.35
2022-09-22T08:23:53.097Z,36.31
2022-09-22T08:26:22.871Z,36.19
2022-09-22T08:28:52.397Z,36.33
2022-09-22T08:31:21.141Z,36.37
2022-09-22T08:33:49.230Z,36.17
2022-09-22T08:36:17.222Z,36.44
2022-09-22T08:38:48.596Z,36.36
2022-09-22T08:41:20.176Z,36.43
2022-09-22T08:43:55.387Z,36.55
2022-09-22T08:46:28.218Z,36.25
2022-09-22T08:49:14.402Z,36.24
2022-09-22T08:51:53.647Z,36.34
2022-09-22T08:54:23.176Z,36.37
2022-09-22T08:56:57.541Z,36.45
2022-09-22T08:59:30.190Z,36.27
2022-09-22T09:02:05.042Z,36.28
2022-09-22T09:04:45.509Z,36.60
2022-09-22T09:07:16.426Z,36.59
2022-09-22T09:09:52.215Z,36.39
2022-09-22T09:12:37.236Z,36.36
2022-09-22T09:15:21.579Z,36.58
2022-09-22T09:17:49.479Z,36.27
2022-09-22T09:20:18.640Z,36.44
2022-09-22T09:22:49.392Z,36.38
2022-09-22T09:25:24.606Z,36.33
2022-09-22T09:27:54.704Z,36.63
2022-09-22T09:30:23.976Z,36.53
2022-09-22T09:32:52.950Z,36.37
2022-09-22T09:35:26.562Z,36.17
2022-09-22T09:37:55.333Z,36.30
2022-09-22T09:40:23.625Z,36.56
2022-09-22T09:42:56.661Z,36.31
2022-09-22T09:45:27.754Z,36.46
2022-09-22T09:48:12.038Z,36.62
2022-09-22T09:50:39.898Z,36.33
2022-09-22T09:53:12.067Z,36.56
2022-09-22T09:55:40.044Z,36.73
2022-09-22T09:58:11.991Z,36.58
2022-09-22T10:00:56.305Z,36.41
2022-09-22T10:03:28.022Z,36.28
2022-09-22T10:06:00.585Z,36.19
2022-09-22T10:08:28.513Z,36.16
2022-09-22T10:10:56.752Z,36.68
2022-09-22T10:13:34.881Z,36.50
2022-09-22T10:16:26.255Z,36.41
2022-09-22T10:19:05.031Z,36.41
2022-09-22T10:21:33.295Z,36.30
2022-09-22T10:24:01.745Z,36.55
2022-09-22T10:26:30.339Z,36.38
2022-09-22T10:29:09.450Z,36.61
2022-09-22T10:31:39.009Z,36.12
2022-09-22T10:34:07.754Z,36.40
2022-09-22T10:36:35.601Z,36.66
2022-09-22T10:39:03.483Z,36.41
2022-09-22T10:41:34.223Z,36.26
2022-09-22T10:44:21.221Z,36.52
2022-09-22T10:47:06.242Z,36.30
2022-09-22T10:49:42.620Z,36.29
2022-09-22T10:52:14.285Z,36.17
2022-09-22T10:55:00.062Z,36.57
2022-09-22T10:57:35.536Z,36.83
2022-09-22T11:00:11.240Z,36.69
2022-09-22T11:03:18.240Z,36.34
2022-09-22T11:06:22.109Z,36.55
2022-09-22T11:09:14.516Z,36.55
2022-09-22T11:12:03.332Z,36.46
2022-09-22T11:14:38.427Z,36.51
2022-09-22T11:17:11.529Z,36.56
2022-09-22T11:19:47.998Z,36.73
2022-09-22T11:22:27.358Z,36.45
2022-09-22T11:25:04.510Z,36.51
2022-09-22T11:27:37.674Z,36.40
2022-09-22T11:30:20.471Z,36.22
2022-09-22T11:33:08.567Z,36.51
2022-09-22T11:35:43.595Z,36.24
2022-09-22T11:38:22.355Z,36.31
2022-09-22T11:41:00.245Z,36.29
2022-09-22T11:43:38.312Z,36.48
2022-09-22T11:46:09.126Z,36.48
2022-09-22T11:48:44.661Z,36.36
2022-09-22T11:51:27.729Z,36.83
2022-09-22T11:54:03.766Z,36.32
2022-09-22T11:56:39.308Z,36.41
2022-09-22T11:59:20.389Z,36.65
2022-09-22T12:01:48.302Z,36.26
2022-09-22T12:04:22.866Z,36.76
2022-09-22T12:06:52.915Z,36.38
2022-09-22T12:09:29.621Z,36.66
2022-09-22T12:11:59.550Z,36.41
2022-09-22T12:14:28.400Z,36.49
2022-09-22T12:16:58.781Z,36.36
2022-09-22T12:19:30.651Z,36.51
2022-09-22T12:22:05.851Z,36.38
2022-09-22T12:24:34.829Z,36.54
2022-09-22T12:27:11.278Z,36.51
2022-09-22T12:29:39.608Z,36.39
2022-09-22T12:32:07.829Z,36.30
2022-09-22T12:34:37.585Z,36.57
2022-09-22T12:37:13.914Z,36.84
2022-09-22T12:39:42.532Z,36.19
2022-09-22T12:42:20.010Z,36.32
2022-09-22T12:44:50.274Z,36.74
2022-09-22T12:47:20.235Z,36.15
2022-09-22T12:49:51.799Z,36.28
2022-09-22T12:53:04.159Z,36.74
2022-09-22T12:55:38.402Z,36.27
2022-09-22T12:58:44.905Z,36.27
2022-09-22T13:01:35.093Z,36.53
2022-09-22T13:04:21.228Z,36.10
2022-09-22T13:06:56.298Z,36.47
2022-09-22T13:09:27.016Z,36.23
2022-09-22T13:12:26.096Z,36.56
2022-09-22T13:15:19.921Z,36.36
2022-09-22T13:17:49.399Z,36.25
2022-09-22T13:20:22.737Z,36.07
2022-09-22T13:22:51.109Z,36.09
2022-09-22T13:25:31.222Z,36.58
2022-09-22T13:28:09.195Z,36.00
2022-09-22T13:30:37.636Z,36.56
2022-09-22T13:33:05.930Z,36.46
2022-09-22T13:35:34.958Z,36.27
2022-09-22T13:38:03.295Z,36.62
2022-09-22T13:40:34.927Z,36.24
2022-09-22T13:43:06.586Z,36.09
2022-09-22T13:45:34.489Z,36.16
2022-09-22T13:48:08.499Z,36.54
2022-09-22T13:50:40.735Z,36.38
2022-09-22T13:53:08.587Z,36.06
2022-09-22T13:55:38.291Z,36.04
2022-09-22T13:58:13.529Z,36.42
2022-09-22T14:01:08.737Z,36.41
2022-09-22T14:03:36.195Z,35.95
2022-09-22T14:06:04.092Z,36.06
2022-09-22T14:08:32.480Z,36.25
2022-09-22T14:11:02.173Z,36.44
2022-09-22T14:13:40.450Z,36.18
2022-09-22T14:16:13.644Z,36.13
2022-09-22T14:18:43.165Z,36.09
2022-09-22T14:21:12.069Z,36.44
2022-09-22T14:23:44.366Z,36.44
2022-09-22T14:26:33.464Z,36.50
2022-09-22T14:29:09.277Z,36.44
2022-09-22T14:31:38.828Z,36.32
2022-09-22T14:34:08.869Z,36.44
2022-09-22T14:36:37.935Z,36.06
2022-09-22T14:39:10.293Z,36.49
2022-09-22T14:41:40.764Z,36.09
2022-09-22T14:44:28.099Z,36.10
2022-09-22T14:46:56.582Z,36.17
2022-09-22T14:49:37.396Z,36.20
2022-09-22T14:52:07.444Z,36.48
2022-09-22T14:54:35.956Z,36.19
2022-09-22T14:57:07.698Z,36.34
2022-09-22T14:59:54.208Z,36.09
2022-09-22T15:02:34.237Z,36.20
2022-09-22T15:05:03.418Z,36.48
2022-09-22T15:07:31.538Z,36.34
2022-09-22T15:10:00.158Z,36.50
2022-09-22T15:12:38.072Z,36.38
2022-09-22T15:15:16.742Z,36.15
2022-09-22T15:18:02.337Z,36.10
2022-09-22T15:20:34.988Z,36.28
2022-09-22T15:23:02.964Z,36.37
2022-09-22T15:25:30.845Z,36.49
2022-09-22T15:28:00.277Z,36.62
2022-09-22T15:30:32.169Z,36.17
2022-09-22T15:33:03.800Z,36.22
2022-09-22T15:35:34.503Z,36.22
2022-09-22T15:38:02.382Z,36.10
2022-09-22T15:40:30.648Z,36.67
2022-09-22T15:43:13.297Z,36.35
2022-09-22T15:45:47.897Z,36.36
2022-09-22T15:48:24.806Z,36.83
2022-09-22T15:50:52.999Z,36.57
2022-09-22T15:53:20.881Z,36.42
2022-09-22T15:55:49.023Z,36.68
2022-09-22T15:58:18.524Z,36.53
2022-09-22T16:00:47.198Z,36.35
2022-09-22T16:03:16.662Z,36.52
2022-09-22T16:05:44.990Z,36.36
2022-09-22T16:08:15.256Z,36.28
2022-09-22T16:10:44.267Z,36.75
2022-09-22T16:13:13.006Z,36.57
2022-09-22T16:15:42.288Z,36.74
2022-09-22T16:18:10.258Z,36.52
2022-09-22T16:20:38.446Z,36.63
2022-09-22T16:23:07.419Z,36.70
2022-09-22T16:25:35.319Z,36.10
2022-09-22T16:28:03.720Z,36.35
2022-09-22T16:30:31.575Z,36.59
2022-09-22T16:33:01.959Z,36.61
2022-09-22T16:35:30.121Z,36.46
2022-09-22T16:37:58.032Z,36.63
2022-09-22T16:40:26.281Z,36.35
2022-09-22T16:42:54.219Z,36.73
2022-09-22T16:45:42.181Z,36.35
2022-09-22T16:48:11.475Z,36.27
2022-09-22T16:50:39.397Z,36.38
2022-09-22T16:53:11.180Z,36.35
2022-09-22T16:55:39.049Z,36.72
2022-09-22T16:58:08.451Z,36.40
2022-09-22T17:00:36.806Z,36.34
2022-09-22T17:03:05.046Z,36.52
2022-09-22T17:05:35.274Z,36.20
2022-09-22T17:08:06.631Z,36.31
2022-09-22T17:10:35.728Z,36.38
2022-09-22T17:13:05.309Z,36.50
2022-09-22T17:15:35.834Z,36.63
2022-09-22T17:18:04.404Z,35.94
2022-09-22T17:20:32.275Z,36.64
2022-09-22T17:23:01.562Z,36.16
2022-09-22T17:25:29.431Z,35.95
2022-09-22T17:27:57.904Z,36.41
2022-09-22T17:30:26.294Z,36.40
2022-09-22T17:32:54.192Z,36.25
2022-09-22T17:35:22.060Z,36.29
2022-09-22T17:37:52.189Z,36.29
2022-09-22T17:40:21.945Z,35.96
2022-09-22T17:42:50.063Z,36.47
2022-09-22T17:45:18.111Z,36.30
2022-09-22T17:48:03.418Z,36.46
2022-09-22T17:50:48.974Z,36.29
2022-09-22T17:53:34.290Z,36.39
2022-09-22T17:56:05.618Z,36.53
2022-09-22T17:58:33.951Z,36.40
2022-09-22T18:01:01.957Z,36.40
2022-09-22T18:03:30.112Z,36.33
2022-09-22T18:05:58.326Z,36.44
2022-09-22T18:08:26.297Z,36.44
2022-09-22T18:10:54.407Z,36.95
2022-09-22T18:13:24.357Z,36.68
2022-09-22T18:15:52.664Z,36.72
2022-09-22T18:18:20.583Z,36.62
2022-09-22T18:20:48.457Z,37.03
2022-09-22T18:23:18.003Z,36.78
2022-09-22T18:25:46.392Z,36.86
2022-09-22T18:28:14.307Z,36.61
2022-09-22T18:30:43.646Z,37.21
2022-09-22T18:33:12.945Z,37.08
2022-09-22T18:35:45.457Z,37.22
2022-09-22T18:38:14.066Z,36.77
2022-09-22T18:40:42.186Z,36.84
2022-09-22T18:43:10.555Z,37.22
2022-09-22T18:45:38.425Z,36.89
2022-09-22T18:48:07.728Z,36.84
2022-09-22T18:50:35.780Z,37.25
2022-09-22T18:53:03.971Z,37.29
2022-09-22T18:55:32.462Z,37.11
2022-09-22T18:58:01.038Z,37.18
2022-09-22T19:00:28.923Z,37.04
2022-09-22T19:02:57.512Z,37.05
2022-09-22T19:05:28.331Z,37.28
2022-09-22T19:07:58.426Z,37.30
2022-09-22T19:10:26.288Z,36.94
2022-09-22T19:12:54.579Z,36.95
2022-09-22T19:15:23.635Z,36.95
2022-09-22T19:17:51.495Z,37.24
2022-09-22T19:20:20.943Z,37.12
2022-09-22T19:22:50.976Z,36.80
2022-09-22T19:25:20.062Z,36.80
2022-09-22T19:27:48.047Z,37.00
2022-09-22T19:30:19.441Z,36.97
2022-09-22T19:32:50.301Z,37.02
2022-09-22T19:35:18.191Z,37.26
2022-09-22T19:37:46.226Z,37.32
2022-09-22T19:40:18.667Z,37.17
2022-09-22T19:42:46.836Z,37.12
2022-09-22T19:45:14.877Z,36.92
2022-09-22T19:47:42.819Z,37.28
2022-09-22T19:50:10.782Z,37.25
2022-09-22T19:52:38.779Z,37.18
2022-09-22T19:55:07.756Z,37.26
2022-09-22T19:57:41.092Z,37.31
2022-09-22T20:00:13.116Z,36.81
2022-09-22T20:02:42.145Z,36.67
2022-09-22T20:05:22.504Z,36.88
2022-09-22T20:07:50.720Z,36.81
2022-09-22T20:10:19.199Z,36.62
2022-09-22T20:12:48.558Z,36.83
2022-09-22T20:15:16.489Z,37.24
2022-09-22T20:17:45.907Z,36.89
2022-09-22T20:20:14.334Z,37.31
2022-09-22T20:22:42.719Z,37.09
2022-09-22T20:25:20.081Z,37.13
2022-09-22T20:27:49.503Z,36.87
2022-09-22T20:30:17.719Z,36.76
2022-09-22T20:32:46.619Z,37.15
2022-09-22T20:35:15.452Z,36.85
2022-09-22T20:37:43.395Z,36.65
2022-09-22T20:40:13.245Z,36.70
2022-09-22T20:42:41.286Z,37.20
2022-09-22T20:45:13.637Z,36.68
2022-09-22T20:47:41.795Z,36.91
2022-09-22T20:50:11.885Z,36.70
2022-09-22T20:52:40.849Z,36.94
2022-09-22T20:55:10.216Z,36.80
2022-09-22T20:57:38.962Z,36.87
2022-09-22T21:00:09.068Z,36.50
2022-09-22T21:02:38.506Z,36.60
2022-09-22T21:05:06.811Z,36.64
2022-09-22T21:07:34.847Z,36.71
2022-09-22T21:10:20.267Z,37.12
2022-09-22T21:12:48.292Z,37.07
2022-09-22T21:15:16.371Z,36.76
2022-09-22T21:17:47.998Z,36.46
2022-09-22T21:20:15.994Z,36.62
2022-09-22T21:22:44.419Z,36.56
2022-09-22T21:25:12.395Z,36.95
2022-09-22T21:27:40.381Z,36.76
2022-09-22T21:30:10.607Z,36.73
2022-09-22T21:32:39.353Z,36.79
2022-09-22T21:35:10.480Z,37.01
2022-09-22T21:37:38.432Z,36.62
2022-09-22T21:40:07.489Z,36.94
2022-09-22T21:42:36.284Z,36.67
2022-09-22T21:45:05.019Z,36.71
2022-09-22T21:47:32.976Z,36.88
2022-09-22T21:50:00.851Z,36.63
2022-09-22T21:52:30.102Z,36.77
2022-09-22T21:54:58.270Z,36.62
2022-09-22T21:57:26.178Z,36.89
2022-09-22T21:59:56.762Z,36.34
2022-09-22T22:02:24.787Z,36.67
2022-09-22T22:04:52.926Z,36.84
2022-09-22T22:07:20.931Z,36.31
2022-09-22T22:09:50.229Z,36.27
2022-09-22T22:12:18.090Z,36.58
2022-09-22T22:14:47.152Z,36.54
2022-09-22T22:17:15.004Z,36.56
2022-09-22T22:19:42.908Z,36.69
2022-09-22T22:22:11.168Z,36.75
2022-09-22T22:24:42.450Z,36.49
2022-09-22T22:27:13.640Z,36.72
2022-09-22T22:29:41.501Z,36.57
2022-09-22T22:32:10.550Z,36.61
2022-09-22T22:34:38.884Z,36.67
2022-09-22T22:37:10.039Z,36.46
2022-09-22T22:39:37.923Z,36.17
2022-09-22T22:42:06.981Z,36.62
2022-09-22T22:44:36.789Z,36.69
2022-09-22T22:47:05.204Z,36.63
2022-09-22T22:49:33.551Z,36.24
2022-09-22T22:52:01.508Z,36.49
2022-09-22T22:54:29.630Z,36.59
2022-09-22T22:56:57.452Z,36.45
2022-09-22T22:59:25.367Z,36.54
2022-09-22T23:01:54.661Z,36.65
2022-09-22T23:04:24.018Z,36.33
2022-09-22T23:06:51.858Z,36.23
2022-09-22T23:09:19.707Z,36.36
2022-09-22T23:11:47.625Z,36.03
2022-09-22T23:14:16.145Z,36.45
2022-09-22T23:16:45.057Z,35.97
2022-09-22T23:19:14.963Z,36.58
2022-09-22T23:21:42.877Z,36.09
2022-09-22T23:24:15.299Z,36.36
2022-09-22T23:26:43.405Z,36.19
2022-09-22T23:29:11.640Z,36.58
2022-09-22T23:31:39.497Z,36.24
2022-09-22T23:34:07.687Z,36.54
2022-09-22T23:36:37.072Z,36.09
2022-09-22T23:39:05.186Z,36.31
2022-09-22T23:41:33.265Z,36.18
2022-09-22T23:44:02.877Z,36.52
2022-09-22T23:46:30.864Z,35.91
2022-09-22T23:49:00.203Z,36.21
2022-09-22T23:51:28.365Z,36.32
2022-09-22T23:53:57.887Z,36.41
2022-09-22T23:56:25.822Z,36.24
2022-09-22T23:58:53.679Z,36.31
